F/V Argentario — FGPE — position and weather

sailwx.info

Track history (hours):
 
Tides and Currents Weather Stations Pressure Air Temp Water Temp Dewpoint Dewpoint Depression Visibility Wind Speed Wind Dir Waves Ship Positions

F/V Argentario

Last reported at 2015-Feb-18 03:14 UTC. Time now 2015-Feb-27 13:13 UTC.
Position N 46°43' W 002°17'.
Warning: this ship's position is 9 days out of date.

Length 22 m; draft 3.4 m.

Type: Fishing. MMSI: 228975000.

Date/timePositionNaut miles runAvg speedWind from/ knotsBaromVisibWave heightAir tempDewpointWater temp
2015-Feb-18 03:14N 46°43' W 002°17'6 8.4
2015-Feb-18 02:33N 46°39' W 002°11'8 8.5
2015-Feb-18 01:33N 46°34' W 002°01'9 8.6
2015-Feb-18 00:33N 46°29' W 001°51'3 2.6
2015-Feb-17 23:33N 46°29' W 001°47'1 0.8
2015-Feb-17 22:33N 46°30' W 001°47'0 0.0
2015-Feb-17 21:33N 46°30' W 001°47'0 0.0
2015-Feb-17 20:33N 46°30' W 001°47'0 0.0
2015-Feb-17 19:33N 46°30' W 001°47'1 0.5
2015-Feb-17 17:33N 46°29' W 001°48'8 8.3
2015-Feb-17 16:33N 46°26' W 001°59'8 8.2
2015-Feb-17 15:33N 46°23' W 002°10'  
2015-Feb-12 22:32N 46°42' W 002°15'9 9.4
2015-Feb-12 21:33N 46°36' W 002°05'9 9.3
2015-Feb-12 20:33N 46°31' W 001°54'5 4.7
2015-Feb-12 19:33N 46°30' W 001°47'4 4.2
2015-Feb-12 18:33N 46°27' W 001°51'10 9.6
2015-Feb-12 17:33N 46°21' W 002°02'  
2015-Feb-10 08:20N 46°40' W 002°05'6 7.4
2015-Feb-10 07:30N 46°42' W 001°57'3 3.7
2015-Feb-10 06:33N 46°41' W 002°02'9 9.4
2015-Feb-10 05:33N 46°43' W 002°15'4 3.7
2015-Feb-10 04:30N 46°44' W 002°21'  
Track history (hours):
 
Tides and Currents Weather Stations Pressure Air Temp Water Temp Dewpoint Dewpoint Depression Visibility Wind Speed Wind Dir Waves Ship Positions

F/V Argentario

Last reported at 2015-Feb-18 03:14 UTC. Time now 2015-Feb-27 13:13 UTC.
Position N 46°43' W 002°17'.
Warning: this ship's position is 9 days out of date.

Length 22 m; draft 3.4 m.

Type: Fishing. MMSI: 228975000.

Date/timePositionNaut miles runAvg speedWind from/ knotsBaromVisibWave heightAir tempDewpointWater temp
2015-Feb-18 03:14N 46°43' W 002°17'6 8.4
2015-Feb-18 02:33N 46°39' W 002°11'8 8.5
2015-Feb-18 01:33N 46°34' W 002°01'9 8.6
2015-Feb-18 00:33N 46°29' W 001°51'3 2.6
2015-Feb-17 23:33N 46°29' W 001°47'1 0.8
2015-Feb-17 22:33N 46°30' W 001°47'0 0.0
2015-Feb-17 21:33N 46°30' W 001°47'0 0.0
2015-Feb-17 20:33N 46°30' W 001°47'0 0.0
2015-Feb-17 19:33N 46°30' W 001°47'1 0.5
2015-Feb-17 17:33N 46°29' W 001°48'8 8.3
2015-Feb-17 16:33N 46°26' W 001°59'8 8.2
2015-Feb-17 15:33N 46°23' W 002°10'  
2015-Feb-12 22:32N 46°42' W 002°15'9 9.4
2015-Feb-12 21:33N 46°36' W 002°05'9 9.3
2015-Feb-12 20:33N 46°31' W 001°54'5 4.7
2015-Feb-12 19:33N 46°30' W 001°47'4 4.2
2015-Feb-12 18:33N 46°27' W 001°51'10 9.6
2015-Feb-12 17:33N 46°21' W 002°02'  
2015-Feb-10 08:20N 46°40' W 002°05'6 7.4
2015-Feb-10 07:30N 46°42' W 001°57'3 3.7
2015-Feb-10 06:33N 46°41' W 002°02'9 9.4
2015-Feb-10 05:33N 46°43' W 002°15'4 3.7
2015-Feb-10 04:30N 46°44' W 002°21'  

Dump ship's entire track history